createdAt,value
2023-04-13T00:00:49.170Z,100.00
2023-04-13T00:03:15.683Z,100.00
2023-04-13T00:05:41.971Z,100.00
2023-04-13T00:08:08.272Z,100.00
2023-04-13T00:10:34.681Z,100.00
2023-04-13T00:13:01.101Z,100.00
2023-04-13T00:15:27.513Z,100.00
2023-04-13T00:17:54.066Z,100.00
2023-04-13T00:20:20.347Z,100.00
2023-04-13T00:22:46.809Z,100.00
2023-04-13T00:25:13.177Z,100.00
2023-04-13T00:27:39.608Z,100.00
2023-04-13T00:30:06.121Z,100.00
2023-04-13T00:32:32.538Z,100.00
2023-04-13T00:34:58.936Z,100.00
2023-04-13T00:37:25.395Z,100.00
2023-04-13T00:39:53.924Z,100.00
2023-04-13T00:42:20.299Z,100.00
2023-04-13T00:44:46.719Z,100.00
2023-04-13T00:47:13.132Z,100.00
2023-04-13T00:49:39.495Z,100.00
2023-04-13T00:52:05.876Z,100.00
2023-04-13T00:54:32.289Z,100.00
2023-04-13T00:56:58.703Z,100.00
2023-04-13T00:59:25.066Z,100.00
2023-04-13T01:01:51.532Z,100.00
2023-04-13T01:04:17.893Z,100.00
2023-04-13T01:06:44.249Z,100.00
2023-04-13T01:09:10.616Z,100.00
2023-04-13T01:11:37.037Z,100.00
2023-04-13T01:14:03.394Z,100.00
2023-04-13T01:16:34.775Z,100.00
2023-04-13T01:21:45.425Z,100.00
2023-04-13T01:24:14.325Z,100.00
2023-04-13T01:26:40.779Z,100.00
2023-04-13T01:29:07.175Z,100.00
2023-04-13T01:31:33.712Z,100.00
2023-04-13T01:34:00.284Z,100.00
2023-04-13T01:36:26.362Z,100.00
2023-04-13T01:38:52.740Z,100.00
2023-04-13T01:41:19.114Z,100.00
2023-04-13T01:43:46.968Z,100.00
2023-04-13T01:46:13.330Z,100.00
2023-04-13T01:48:39.760Z,100.00
2023-04-13T01:51:06.170Z,100.00
2023-04-13T01:53:32.605Z,100.00
2023-04-13T01:55:58.976Z,100.00
2023-04-13T01:58:25.372Z,100.00
2023-04-13T02:00:52.137Z,100.00
2023-04-13T02:03:18.567Z,100.00
2023-04-13T02:05:45.282Z,100.00
2023-04-13T02:08:11.630Z,100.00
2023-04-13T02:10:38.087Z,100.00
2023-04-13T02:13:04.510Z,100.00
2023-04-13T02:15:30.867Z,100.00
2023-04-13T02:17:57.416Z,100.00
2023-04-13T02:20:23.776Z,100.00
2023-04-13T02:22:50.185Z,100.00
2023-04-13T02:25:16.640Z,100.00
2023-04-13T02:27:43.061Z,100.00
2023-04-13T02:30:09.486Z,100.00
2023-04-13T02:32:36.017Z,100.00
2023-04-13T02:35:02.325Z,100.00
2023-04-13T02:37:30.902Z,100.00
2023-04-13T02:39:57.789Z,100.00
2023-04-13T02:42:24.196Z,100.00
2023-04-13T02:44:50.556Z,100.00
2023-04-13T02:47:17.019Z,100.00
2023-04-13T02:49:43.351Z,100.00
2023-04-13T02:52:09.761Z,100.00
2023-04-13T02:54:36.211Z,100.00
2023-04-13T02:57:02.633Z,100.00
2023-04-13T02:59:29.109Z,100.00
2023-04-13T03:01:55.515Z,100.00
2023-04-13T03:04:21.889Z,100.00
2023-04-13T03:06:48.257Z,100.00
2023-04-13T03:09:14.651Z,100.00
2023-04-13T03:11:42.381Z,100.00
2023-04-13T03:14:07.515Z,100.00
2023-04-13T03:16:33.935Z,100.00
2023-04-13T03:19:00.278Z,100.00
2023-04-13T03:21:26.655Z,100.00
2023-04-13T03:23:53.017Z,100.00
2023-04-13T03:26:19.418Z,100.00
2023-04-13T03:28:45.950Z,100.00
2023-04-13T03:31:12.341Z,100.00
2023-04-13T03:33:38.804Z,100.00
2023-04-13T03:36:05.243Z,100.00
2023-04-13T03:38:31.638Z,100.00
2023-04-13T03:40:58.054Z,100.00
2023-04-13T03:43:24.461Z,100.00
2023-04-13T03:45:50.986Z,100.00
2023-04-13T03:48:17.322Z,100.00
2023-04-13T03:50:43.749Z,100.00
2023-04-13T03:53:10.104Z,100.00
2023-04-13T03:55:36.498Z,100.00
2023-04-13T03:58:02.862Z,100.00
2023-04-13T04:00:30.423Z,100.00
2023-04-13T04:02:56.871Z,100.00
2023-04-13T04:05:23.247Z,100.00
2023-04-13T04:07:49.677Z,100.00
2023-04-13T04:10:15.995Z,100.00
2023-04-13T04:12:42.361Z,100.00
2023-04-13T04:15:08.786Z,100.00
2023-04-13T04:17:35.746Z,100.00
2023-04-13T04:20:02.630Z,100.00
2023-04-13T04:22:29.036Z,100.00
2023-04-13T04:24:55.435Z,100.00
2023-04-13T04:27:21.865Z,100.00
2023-04-13T04:29:48.221Z,100.00
2023-04-13T04:32:14.711Z,100.00
2023-04-13T04:34:41.042Z,100.00
2023-04-13T04:37:19.681Z,100.00
2023-04-13T04:39:33.824Z,100.00
2023-04-13T04:42:00.236Z,100.00
2023-04-13T04:44:26.640Z,100.00
2023-04-13T04:46:53.105Z,100.00
2023-04-13T04:49:19.458Z,100.00
2023-04-13T04:51:45.882Z,100.00
2023-04-13T04:54:12.238Z,100.00
2023-04-13T04:56:38.632Z,100.00
2023-04-13T04:59:05.006Z,100.00
2023-04-13T05:01:31.455Z,100.00
2023-04-13T05:03:57.968Z,100.00
2023-04-13T05:06:24.383Z,100.00
2023-04-13T05:08:50.806Z,100.00
2023-04-13T05:11:17.225Z,100.00
2023-04-13T05:13:43.833Z,100.00
2023-04-13T05:16:10.436Z,100.00
2023-04-13T05:18:36.815Z,100.00
2023-04-13T05:21:03.168Z,100.00
2023-04-13T05:23:29.722Z,100.00
2023-04-13T05:25:56.096Z,100.00
2023-04-13T05:28:22.536Z,100.00
2023-04-13T05:30:49.240Z,100.00
2023-04-13T05:33:15.611Z,100.00
2023-04-13T05:35:42.144Z,100.00
2023-04-13T05:38:08.508Z,100.00
2023-04-13T05:40:34.939Z,100.00
2023-04-13T05:43:01.342Z,100.00
2023-04-13T05:45:27.734Z,100.00
2023-04-13T05:47:54.183Z,100.00
2023-04-13T05:50:20.509Z,100.00
2023-04-13T05:52:47.017Z,100.00
2023-04-13T05:55:13.425Z,100.00
2023-04-13T05:57:40.017Z,100.00
2023-04-13T06:00:06.491Z,100.00
2023-04-13T06:02:33.019Z,100.00
2023-04-13T06:04:59.630Z,100.00
2023-04-13T06:07:25.815Z,100.00
2023-04-13T06:09:52.190Z,100.00
2023-04-13T06:12:18.553Z,100.00
2023-04-13T06:14:44.983Z,100.00
2023-04-13T06:17:11.458Z,100.00
2023-04-13T06:19:37.759Z,100.00
2023-04-13T06:22:04.162Z,100.00
2023-04-13T06:24:30.575Z,100.00
2023-04-13T06:26:56.990Z,100.00
2023-04-13T06:29:23.618Z,100.00
2023-04-13T06:31:50.028Z,100.00
2023-04-13T06:34:16.426Z,100.00
2023-04-13T06:36:42.905Z,100.00
2023-04-13T06:39:09.331Z,100.00
2023-04-13T06:41:35.756Z,100.00
2023-04-13T06:44:02.266Z,100.00
2023-04-13T06:46:28.819Z,100.00
2023-04-13T06:48:55.381Z,100.00
2023-04-13T06:51:21.820Z,100.00
2023-04-13T06:53:48.202Z,100.00
2023-04-13T06:56:14.561Z,100.00
2023-04-13T06:58:41.002Z,100.00
2023-04-13T07:01:07.595Z,100.00
2023-04-13T07:03:34.058Z,100.00
2023-04-13T07:06:00.211Z,100.00
2023-04-13T07:08:26.573Z,100.00
2023-04-13T07:10:53.009Z,100.00
2023-04-13T07:13:19.376Z,100.00
2023-04-13T07:15:45.768Z,100.00
2023-04-13T07:18:12.135Z,99.93
2023-04-13T07:20:38.559Z,99.43
2023-04-13T07:23:04.970Z,98.94
2023-04-13T07:25:31.380Z,98.22
2023-04-13T07:27:57.788Z,97.21
2023-04-13T07:30:24.215Z,96.67
2023-04-13T07:32:50.787Z,96.33
2023-04-13T07:35:17.195Z,95.56
2023-04-13T07:37:43.581Z,94.64
2023-04-13T07:40:09.993Z,94.10
2023-04-13T07:42:36.427Z,93.62
2023-04-13T07:45:03.609Z,92.93
2023-04-13T07:47:30.052Z,92.43
2023-04-13T07:49:56.400Z,91.57
2023-04-13T07:52:22.819Z,91.02
2023-04-13T07:54:49.409Z,90.39
2023-04-13T07:57:15.813Z,89.44
2023-04-13T07:59:42.226Z,88.85
2023-04-13T08:02:08.737Z,88.09
2023-04-13T08:04:35.469Z,87.47
2023-04-13T08:07:01.685Z,86.74
2023-04-13T08:09:28.076Z,86.00
2023-04-13T08:11:54.576Z,85.04
2023-04-13T08:14:21.198Z,84.33
2023-04-13T08:16:47.711Z,83.61
2023-04-13T08:19:14.015Z,83.19
2023-04-13T08:21:40.413Z,82.63
2023-04-13T08:24:06.851Z,82.27
2023-04-13T08:26:33.209Z,81.98
2023-04-13T08:29:00.117Z,81.61
2023-04-13T08:31:26.341Z,81.13
2023-04-13T08:33:52.693Z,80.68
2023-04-13T08:36:19.080Z,80.20
2023-04-13T08:38:45.506Z,79.75
2023-04-13T08:41:11.913Z,79.36
2023-04-13T08:43:38.305Z,78.90
2023-04-13T08:46:04.801Z,78.47
2023-04-13T08:48:36.370Z,77.81
2023-04-13T08:50:57.595Z,77.55
2023-04-13T08:53:23.963Z,77.08
2023-04-13T08:55:50.335Z,76.79
2023-04-13T08:58:16.716Z,76.53
2023-04-13T09:00:43.137Z,76.13
2023-04-13T09:03:13.971Z,75.62
2023-04-13T09:05:36.976Z,75.34
2023-04-13T09:08:03.432Z,74.85
2023-04-13T09:10:29.834Z,74.47
2023-04-13T09:12:56.238Z,74.04
2023-04-13T09:15:22.621Z,73.73
2023-04-13T09:17:49.102Z,73.40
2023-04-13T09:20:15.418Z,73.04
2023-04-13T09:22:41.830Z,72.56
2023-04-13T09:25:08.204Z,72.11
2023-04-13T09:27:34.598Z,71.69
2023-04-13T09:30:01.070Z,71.15
2023-04-13T09:32:27.431Z,70.44
2023-04-13T09:34:54.162Z,70.09
2023-04-13T09:37:20.702Z,69.62
2023-04-13T09:39:47.130Z,69.21
2023-04-13T09:42:13.514Z,68.92
2023-04-13T09:44:39.924Z,68.39
2023-04-13T09:47:06.567Z,68.06
2023-04-13T09:49:32.934Z,67.71
2023-04-13T09:51:59.347Z,67.68
2023-04-13T09:54:25.750Z,67.51
2023-04-13T09:56:52.596Z,67.35
2023-04-13T09:59:18.971Z,67.10
2023-04-13T10:01:45.939Z,66.81
2023-04-13T10:04:12.220Z,66.69
2023-04-13T10:06:38.752Z,66.58
2023-04-13T10:09:05.166Z,66.17
2023-04-13T10:11:31.533Z,66.12
2023-04-13T10:13:58.369Z,65.91
2023-04-13T10:16:24.701Z,65.72
2023-04-13T10:18:51.036Z,65.05
2023-04-13T10:21:17.376Z,65.05
2023-04-13T10:23:44.088Z,64.88
2023-04-13T10:26:10.580Z,64.93
2023-04-13T10:28:36.956Z,64.88
2023-04-13T10:31:03.375Z,64.55
2023-04-13T10:33:29.959Z,64.57
2023-04-13T10:35:56.351Z,64.56
2023-04-13T10:38:22.759Z,64.42
2023-04-13T10:40:49.169Z,64.44
2023-04-13T10:43:15.559Z,64.25
2023-04-13T10:45:41.944Z,64.13
2023-04-13T10:48:08.347Z,63.89
2023-04-13T10:50:34.765Z,63.93
2023-04-13T10:53:01.151Z,63.93
2023-04-13T10:55:27.938Z,63.87
2023-04-13T10:57:54.449Z,63.89
2023-04-13T11:00:20.833Z,63.79
2023-04-13T11:02:47.497Z,63.89
2023-04-13T11:05:13.625Z,63.83
2023-04-13T11:07:40.016Z,63.62
2023-04-13T11:10:06.782Z,63.61
2023-04-13T11:12:32.859Z,63.53
2023-04-13T11:14:59.288Z,63.46
2023-04-13T11:17:25.818Z,63.37
2023-04-13T11:19:52.118Z,63.30
2023-04-13T11:22:18.913Z,63.33
2023-04-13T11:24:45.380Z,63.36
2023-04-13T11:27:11.930Z,63.37
2023-04-13T11:29:38.302Z,63.33
2023-04-13T11:32:04.867Z,63.38
2023-04-13T11:34:31.260Z,63.42
2023-04-13T11:36:57.621Z,63.45
2023-04-13T11:39:24.006Z,63.28
2023-04-13T11:41:50.464Z,63.41
2023-04-13T11:44:16.886Z,63.39
2023-04-13T11:46:43.416Z,63.43
2023-04-13T11:49:09.711Z,63.53
2023-04-13T11:51:36.109Z,63.75
2023-04-13T11:54:02.837Z,63.60
2023-04-13T11:56:29.221Z,63.97
2023-04-13T11:58:58.270Z,63.81
2023-04-13T12:01:27.189Z,64.16
2023-04-13T12:04:04.155Z,64.21
2023-04-13T12:06:17.919Z,64.56
2023-04-13T12:08:44.286Z,64.70
2023-04-13T12:13:38.015Z,64.85
2023-04-13T12:16:09.407Z,65.25
2023-04-13T12:18:36.651Z,65.62
2023-04-13T12:20:56.246Z,65.74
2023-04-13T12:23:23.888Z,65.99
2023-04-13T12:25:49.863Z,65.92
2023-04-13T12:28:15.534Z,65.94
2023-04-13T12:30:41.913Z,66.24
2023-04-13T12:33:08.377Z,66.26
2023-04-13T12:35:34.743Z,66.42
2023-04-13T12:38:01.119Z,66.75
2023-04-13T12:40:27.532Z,67.02
2023-04-13T12:42:53.950Z,67.13
2023-04-13T12:45:20.329Z,67.14
2023-04-13T12:47:46.919Z,67.33
2023-04-13T12:50:13.176Z,67.44
2023-04-13T12:52:39.588Z,67.47
2023-04-13T12:55:05.972Z,67.49
2023-04-13T12:57:32.463Z,67.48
2023-04-13T12:59:58.773Z,67.75
2023-04-13T13:02:25.231Z,68.01
2023-04-13T13:04:51.771Z,67.99
2023-04-13T13:07:18.454Z,68.43
2023-04-13T13:09:44.842Z,68.80
2023-04-13T13:12:11.255Z,69.15
2023-04-13T13:14:37.749Z,69.46
2023-04-13T13:17:04.111Z,70.15
2023-04-13T13:19:30.492Z,70.52
2023-04-13T13:21:57.964Z,70.80
2023-04-13T13:24:24.321Z,71.32
2023-04-13T13:27:12.114Z,71.18
2023-04-13T13:29:17.410Z,71.75
2023-04-13T13:31:44.041Z,71.50
2023-04-13T13:34:10.375Z,71.37
2023-04-13T13:36:36.795Z,71.23
2023-04-13T13:39:03.262Z,71.30
2023-04-13T13:41:29.658Z,71.37
2023-04-13T13:43:56.045Z,71.40
2023-04-13T13:46:22.487Z,71.55
2023-04-13T13:48:48.825Z,71.83
2023-04-13T13:51:15.268Z,72.18
2023-04-13T13:53:41.632Z,72.42
2023-04-13T13:56:08.052Z,72.78
2023-04-13T13:58:34.414Z,73.18
2023-04-13T14:01:01.173Z,73.68
2023-04-13T14:03:27.580Z,74.12
2023-04-13T14:05:53.922Z,74.69
2023-04-13T14:08:21.473Z,75.08
2023-04-13T14:10:47.886Z,75.38
2023-04-13T14:13:14.343Z,75.83
2023-04-13T14:15:40.774Z,76.30
2023-04-13T14:18:11.298Z,76.84
2023-04-13T14:20:34.653Z,77.26
2023-04-13T14:23:01.068Z,77.78
2023-04-13T14:25:27.498Z,78.28
2023-04-13T14:27:53.955Z,78.58
2023-04-13T14:30:20.373Z,78.96
2023-04-13T14:32:46.821Z,79.27
2023-04-13T14:35:13.381Z,79.58
2023-04-13T14:37:39.797Z,79.84
2023-04-13T14:40:06.281Z,79.86
2023-04-13T14:42:33.064Z,80.02
2023-04-13T14:44:59.448Z,79.93
2023-04-13T14:47:25.918Z,79.97
2023-04-13T14:49:52.326Z,80.27
2023-04-13T14:52:18.743Z,80.45
2023-04-13T14:54:46.156Z,80.49
2023-04-13T14:57:12.721Z,80.73
2023-04-13T14:59:39.022Z,80.72
2023-04-13T15:02:05.523Z,80.78
2023-04-13T15:04:31.922Z,80.89
2023-04-13T15:06:58.194Z,81.15
2023-04-13T15:09:24.734Z,81.29
2023-04-13T15:11:51.130Z,81.51
2023-04-13T15:14:17.541Z,81.13
2023-04-13T15:16:43.977Z,81.28
2023-04-13T15:19:10.340Z,81.55
2023-04-13T15:21:36.850Z,81.93
2023-04-13T15:24:03.176Z,82.26
2023-04-13T15:26:29.514Z,82.85
2023-04-13T15:28:56.027Z,83.23
2023-04-13T15:31:22.531Z,83.89
2023-04-13T15:33:48.898Z,84.34
2023-04-13T15:36:15.303Z,84.50
2023-04-13T15:38:41.808Z,84.94
2023-04-13T15:41:08.155Z,85.17
2023-04-13T15:43:34.537Z,85.59
2023-04-13T15:46:00.967Z,85.80
2023-04-13T15:48:27.403Z,86.01
2023-04-13T15:50:53.805Z,86.29
2023-04-13T15:53:20.290Z,86.59
2023-04-13T15:55:47.011Z,86.71
2023-04-13T15:58:13.395Z,86.73
2023-04-13T16:00:39.818Z,86.95
2023-04-13T16:03:06.368Z,87.26
2023-04-13T16:05:32.643Z,86.86
2023-04-13T16:07:59.061Z,86.82
2023-04-13T16:10:25.424Z,87.03
2023-04-13T16:12:51.988Z,87.33
2023-04-13T16:15:18.413Z,87.21
2023-04-13T16:17:45.189Z,87.01
2023-04-13T16:20:11.538Z,86.83
2023-04-13T16:22:37.947Z,86.80
2023-04-13T16:25:04.454Z,87.14
2023-04-13T16:27:30.888Z,87.26
2023-04-13T16:29:58.491Z,87.25
2023-04-13T16:32:24.917Z,87.50
2023-04-13T16:34:51.354Z,87.89
2023-04-13T16:37:17.738Z,87.67
2023-04-13T16:39:44.116Z,87.44
2023-04-13T16:42:10.499Z,86.65
2023-04-13T16:44:37.088Z,86.60
2023-04-13T16:47:03.480Z,86.57
2023-04-13T16:49:29.882Z,86.78
2023-04-13T16:51:56.313Z,86.69
2023-04-13T16:54:22.689Z,87.07
2023-04-13T16:56:49.104Z,87.57
2023-04-13T16:59:15.595Z,87.70
2023-04-13T17:01:42.074Z,88.00
2023-04-13T17:04:08.471Z,88.09
2023-04-13T17:06:34.987Z,88.34
2023-04-13T17:09:01.527Z,88.22
2023-04-13T17:11:27.738Z,88.45
2023-04-13T17:13:54.175Z,89.20
2023-04-13T17:16:20.822Z,89.31
2023-04-13T17:18:47.165Z,90.08
2023-04-13T17:21:13.601Z,90.13
2023-04-13T17:23:40.031Z,89.83
2023-04-13T17:26:06.389Z,90.02
2023-04-13T17:28:33.054Z,90.23
2023-04-13T17:30:59.412Z,90.30
2023-04-13T17:33:25.801Z,90.34
2023-04-13T17:35:52.556Z,90.44
2023-04-13T17:38:19.045Z,90.81
2023-04-13T17:40:45.435Z,90.99
2023-04-13T17:43:11.891Z,91.10
2023-04-13T17:45:40.496Z,91.12
2023-04-13T17:48:04.718Z,91.14
2023-04-13T17:50:31.105Z,90.90
2023-04-13T17:52:57.516Z,91.10
2023-04-13T17:55:23.930Z,91.15
2023-04-13T17:57:50.489Z,91.40
2023-04-13T18:00:16.923Z,91.75
2023-04-13T18:02:43.415Z,91.94
2023-04-13T18:05:09.662Z,92.24
2023-04-13T18:07:36.035Z,92.48
2023-04-13T18:10:02.492Z,92.69
2023-04-13T18:12:28.861Z,92.88
2023-04-13T18:14:55.262Z,92.91
2023-04-13T18:17:21.796Z,93.07
2023-04-13T18:19:48.043Z,93.33
2023-04-13T18:22:15.240Z,93.38
2023-04-13T18:24:40.885Z,93.55
2023-04-13T18:27:07.249Z,93.56
2023-04-13T18:29:33.685Z,93.61
2023-04-13T18:32:00.046Z,93.69
2023-04-13T18:34:26.482Z,94.04
2023-04-13T18:36:52.892Z,94.22
2023-04-13T18:39:19.304Z,94.44
2023-04-13T18:41:45.685Z,94.55
2023-04-13T18:44:12.097Z,94.69
2023-04-13T18:46:38.611Z,94.79
2023-04-13T18:49:04.940Z,95.04
2023-04-13T18:51:31.342Z,95.21
2023-04-13T18:53:57.979Z,95.26
2023-04-13T18:56:24.182Z,95.32
2023-04-13T18:58:50.600Z,95.44
2023-04-13T19:01:17.001Z,95.47
2023-04-13T19:03:43.634Z,95.54
2023-04-13T19:06:09.853Z,95.58
2023-04-13T19:08:36.212Z,95.63
2023-04-13T19:11:02.584Z,95.68
2023-04-13T19:13:28.960Z,95.77
2023-04-13T19:15:57.479Z,95.82
2023-04-13T19:18:21.796Z,96.00
2023-04-13T19:20:48.234Z,96.12
2023-04-13T19:23:14.657Z,96.24
2023-04-13T19:25:41.080Z,96.24
2023-04-13T19:28:07.503Z,96.33
2023-04-13T19:30:34.010Z,96.26
2023-04-13T19:33:00.501Z,96.28
2023-04-13T19:35:27.097Z,96.49
2023-04-13T19:37:53.465Z,96.57
2023-04-13T19:40:19.955Z,96.60
2023-04-13T19:42:46.356Z,96.73
2023-04-13T19:45:12.739Z,96.76
2023-04-13T19:47:39.332Z,96.74
2023-04-13T19:50:05.564Z,96.65
2023-04-13T19:52:31.895Z,96.69
2023-04-13T19:54:58.286Z,96.86
2023-04-13T19:57:24.663Z,96.75
2023-04-13T19:59:51.108Z,96.64
2023-04-13T20:02:17.706Z,96.58
2023-04-13T20:04:44.134Z,96.40
2023-04-13T20:07:10.433Z,96.44
2023-04-13T20:09:36.849Z,96.50
2023-04-13T20:12:03.252Z,96.35
2023-04-13T20:14:29.633Z,96.51
2023-04-13T20:16:56.192Z,96.48
2023-04-13T20:19:22.574Z,96.65
2023-04-13T20:21:49.184Z,96.66
2023-04-13T20:24:15.600Z,96.36
2023-04-13T20:26:41.960Z,96.72
2023-04-13T20:29:08.522Z,97.09
2023-04-13T20:31:34.833Z,97.35
2023-04-13T20:34:01.274Z,97.48
2023-04-13T20:36:27.640Z,97.39
2023-04-13T20:38:54.067Z,97.92
2023-04-13T20:41:20.429Z,98.31
2023-04-13T20:43:46.875Z,98.36
2023-04-13T20:46:13.330Z,98.56
2023-04-13T20:51:06.123Z,99.19
2023-04-13T20:53:32.506Z,99.18
2023-04-13T20:55:58.871Z,99.28
2023-04-13T20:58:25.306Z,99.72
2023-04-13T21:00:51.735Z,100.00
2023-04-13T21:03:18.345Z,100.00
2023-04-13T21:05:44.576Z,100.00
2023-04-13T21:08:10.997Z,100.00
2023-04-13T21:10:37.563Z,100.00
2023-04-13T21:13:03.915Z,100.00
2023-04-13T21:15:30.333Z,100.00
2023-04-13T21:17:56.805Z,100.00
2023-04-13T21:20:23.357Z,100.00
2023-04-13T21:22:49.773Z,100.00
2023-04-13T21:25:16.153Z,100.00
2023-04-13T21:27:42.506Z,100.00
2023-04-13T21:30:08.946Z,100.00
2023-04-13T21:32:35.381Z,100.00
2023-04-13T21:35:02.067Z,100.00
2023-04-13T21:37:28.646Z,100.00
2023-04-13T21:39:55.019Z,100.00
2023-04-13T21:42:22.728Z,100.00
2023-04-13T21:44:47.871Z,100.00
2023-04-13T21:47:14.297Z,100.00
2023-04-13T21:49:40.666Z,100.00
2023-04-13T21:52:07.170Z,100.00
2023-04-13T21:54:33.595Z,100.00
2023-04-13T21:57:00.003Z,100.00
2023-04-13T21:59:26.557Z,100.00
2023-04-13T22:01:53.073Z,100.00
2023-04-13T22:04:19.445Z,100.00
2023-04-13T22:06:45.766Z,100.00
2023-04-13T22:09:12.381Z,100.00
2023-04-13T22:11:38.564Z,100.00
2023-04-13T22:14:04.987Z,100.00
2023-04-13T22:16:31.412Z,100.00
2023-04-13T22:18:58.009Z,100.00
2023-04-13T22:21:24.226Z,100.00
2023-04-13T22:23:50.773Z,100.00
2023-04-13T22:26:17.155Z,100.00
2023-04-13T22:28:43.582Z,100.00
2023-04-13T22:31:10.070Z,100.00
2023-04-13T22:33:36.524Z,100.00
2023-04-13T22:36:02.952Z,100.00
2023-04-13T22:38:29.321Z,100.00
2023-04-13T22:40:55.740Z,100.00
2023-04-13T22:43:22.215Z,100.00
2023-04-13T22:45:48.633Z,100.00
2023-04-13T22:48:15.032Z,100.00
2023-04-13T22:50:41.525Z,100.00
2023-04-13T22:53:07.935Z,100.00
2023-04-13T22:55:34.364Z,100.00
2023-04-13T22:58:00.782Z,100.00
2023-04-13T23:00:27.169Z,100.00
2023-04-13T23:02:53.751Z,100.00
2023-04-13T23:05:20.205Z,100.00
2023-04-13T23:07:46.643Z,100.00
2023-04-13T23:10:15.267Z,100.00
2023-04-13T23:12:39.775Z,100.00
2023-04-13T23:15:06.179Z,100.00
2023-04-13T23:17:32.584Z,100.00
2023-04-13T23:19:58.939Z,100.00
2023-04-13T23:22:25.371Z,100.00
2023-04-13T23:24:54.153Z,100.00
2023-04-13T23:27:20.577Z,100.00
2023-04-13T23:29:47.112Z,100.00
2023-04-13T23:32:13.586Z,100.00
2023-04-13T23:34:39.888Z,100.00
2023-04-13T23:37:06.325Z,100.00
2023-04-13T23:39:32.706Z,100.00
2023-04-13T23:41:59.077Z,100.00
2023-04-13T23:44:25.478Z,100.00
2023-04-13T23:46:51.880Z,100.00
2023-04-13T23:49:18.259Z,100.00
2023-04-13T23:51:44.661Z,100.00
2023-04-13T23:54:11.136Z,100.00
2023-04-13T23:56:37.544Z,100.00
2023-04-13T23:59:03.927Z,100.00
